Skip Navigation Links Skip Navigation Links

Current Weather

Virginia Tech, Blacksburg, Va.

For information only: do not use for flight planning or navigation.
Latest weather
Observation time Thursday, October 18, 2018 1:55 AM EDT
Local time Thursday, October 18, 2018 2:15 AM EDT
Flight conditions Visual Meteorological Conditions
Winds
Wind direction Northwest (320°)
Wind speed 13 mph
Wind gusting to 22 mph
Visibility 10 mi.
Sky condition
Ceiling unlimited
Sky clear
Temperature 48°F
Dewpoint 35°F
Altimeter 30.34 in.Hg
Derived measurements
Relative humidity 60%
Wind chill 43°F
Density altitude 1026 ft.
Climate data
Remarks
Fully automated report.
Automated weather observing station with precipitation discriminator.
METAR KBCB 180555Z AUTO 32011G19KT 10SM CLR 09/02 A3034 RMK AO2 T00890016 10126 20089

Settings

Location code

InnerDrive.Weather 4.0.6770.0 Release CLR 4.0.30319.42000
Copyright ©2018 Inner Drive Technology. All rights reserved. Portions Copyright ©1986-2018 David Braverman.

Find weather

Site navigation


Skip Navigation Links

Place info

Page info

PayPal - The safer, easier way to pay online!

Return home.

Copyright ©2018 Inner Drive Technology. Purveyors of fine, hand-crafted computer software. Page printed 2018-10-18T06:15:38 UTC.